createdAt,value
2018-01-24T00:02:22.323Z,1.10
2018-01-24T00:04:48.930Z,1.10
2018-01-24T00:07:15.537Z,1.17
2018-01-24T00:09:42.132Z,1.23
2018-01-24T00:12:08.731Z,0.90
2018-01-24T00:14:35.331Z,1.17
2018-01-24T00:17:01.937Z,1.10
2018-01-24T00:19:28.823Z,0.90
2018-01-24T00:21:55.437Z,1.00
2018-01-24T00:24:22.044Z,0.90
2018-01-24T00:26:48.892Z,0.80
2018-01-24T00:29:15.510Z,1.00
2018-01-24T00:31:42.092Z,0.90
2018-01-24T00:34:09.043Z,0.80
2018-01-24T00:36:35.631Z,0.80
2018-01-24T00:39:02.255Z,0.80
2018-01-24T00:41:28.858Z,0.80
2018-01-24T00:43:55.460Z,0.87
2018-01-24T00:48:54.340Z,0.73
2018-01-24T00:51:20.931Z,0.60
2018-01-24T00:53:47.524Z,0.80
2018-01-24T00:56:14.126Z,0.70
2018-01-24T00:58:40.719Z,0.83
2018-01-24T01:01:07.567Z,0.70
2018-01-24T01:03:34.163Z,0.70
2018-01-24T01:06:00.751Z,0.60
2018-01-24T01:08:27.346Z,0.70
2018-01-24T01:10:53.943Z,0.60
2018-01-24T01:13:20.855Z,0.50
2018-01-24T01:15:47.465Z,0.53
2018-01-24T01:18:14.047Z,0.50
2018-01-24T01:20:40.662Z,0.50
2018-01-24T01:23:07.256Z,0.50
2018-01-24T01:25:33.868Z,0.50
2018-01-24T01:28:00.467Z,0.50
2018-01-24T01:30:27.065Z,0.50
2018-01-24T01:32:53.660Z,0.53
2018-01-24T01:35:20.247Z,0.50
2018-01-24T01:37:46.863Z,0.50
2018-01-24T01:40:13.457Z,0.50
2018-01-24T01:42:40.060Z,0.50
2018-01-24T01:45:06.668Z,0.40
2018-01-24T01:47:33.251Z,0.50
2018-01-24T01:49:59.867Z,0.50
2018-01-24T01:52:26.460Z,0.50
2018-01-24T01:54:53.059Z,0.40
2018-01-24T01:57:19.658Z,0.40
2018-01-24T01:59:46.247Z,0.60
2018-01-24T02:02:13.153Z,0.47
2018-01-24T02:04:39.756Z,0.50
2018-01-24T02:07:06.433Z,0.50
2018-01-24T02:09:33.116Z,0.50
2018-01-24T02:11:59.719Z,0.40
2018-01-24T02:14:26.323Z,0.40
2018-01-24T02:16:53.763Z,0.40
2018-01-24T02:19:20.363Z,0.60
2018-01-24T02:21:46.957Z,0.60
2018-01-24T02:24:13.551Z,0.50
2018-01-24T02:26:40.187Z,0.50
2018-01-24T02:29:06.795Z,0.40
2018-01-24T02:31:33.526Z,0.50
2018-01-24T02:34:00.120Z,0.43
2018-01-24T02:36:26.716Z,0.50
2018-01-24T02:39:00.085Z,0.40
2018-01-24T02:41:26.674Z,0.40
2018-01-24T02:43:53.580Z,0.63
2018-01-24T02:46:20.176Z,0.50
2018-01-24T02:48:46.767Z,0.50
2018-01-24T02:51:13.605Z,0.53
2018-01-24T02:53:40.204Z,0.50
2018-01-24T02:56:06.840Z,0.50
2018-01-24T02:58:33.443Z,0.40
2018-01-24T03:01:00.038Z,0.50
2018-01-24T03:03:26.896Z,0.50
2018-01-24T03:05:53.492Z,0.57
2018-01-24T03:08:20.106Z,0.43
2018-01-24T03:10:46.727Z,0.40
2018-01-24T03:13:13.344Z,0.47
2018-01-24T03:15:39.939Z,0.50
2018-01-24T03:18:06.708Z,0.50
2018-01-24T03:20:33.300Z,0.50
2018-01-24T03:22:59.900Z,0.50
2018-01-24T03:25:26.490Z,0.40
2018-01-24T03:27:53.390Z,0.40
2018-01-24T03:30:19.995Z,0.50
2018-01-24T03:32:46.584Z,0.40
2018-01-24T03:35:13.188Z,0.50
2018-01-24T03:37:39.792Z,0.47
2018-01-24T03:40:07.387Z,0.50
2018-01-24T03:42:33.991Z,0.50
2018-01-24T03:45:00.579Z,0.47
2018-01-24T03:47:27.185Z,0.50
2018-01-24T03:49:53.782Z,0.50
2018-01-24T03:52:20.387Z,0.50
2018-01-24T03:54:48.545Z,0.40
2018-01-24T03:57:15.132Z,0.43
2018-01-24T03:59:41.737Z,0.40
2018-01-24T04:02:08.331Z,0.50
2018-01-24T04:04:34.939Z,0.50
2018-01-24T04:07:01.539Z,0.50
2018-01-24T04:09:28.136Z,0.40
2018-01-24T04:11:54.741Z,0.40
2018-01-24T04:14:21.327Z,0.50
2018-01-24T04:16:47.936Z,0.40
2018-01-24T04:19:14.539Z,0.53
2018-01-24T04:21:41.132Z,0.50
2018-01-24T04:24:07.769Z,0.40
2018-01-24T04:26:34.400Z,0.40
2018-01-24T04:29:01.028Z,0.50
2018-01-24T04:31:27.616Z,0.47
2018-01-24T04:33:54.207Z,0.43
2018-01-24T04:36:20.808Z,0.40
2018-01-24T04:38:47.399Z,0.40
2018-01-24T04:41:14.011Z,0.50
2018-01-24T04:43:40.606Z,0.50
2018-01-24T04:46:07.204Z,0.50
2018-01-24T04:48:33.803Z,0.50
2018-01-24T04:51:00.403Z,0.53
2018-01-24T04:53:27.300Z,0.50
2018-01-24T04:55:55.444Z,0.50
2018-01-24T04:58:22.034Z,0.50
2018-01-24T05:00:48.665Z,0.50
2018-01-24T05:03:15.979Z,0.50
2018-01-24T05:05:42.578Z,0.50
2018-01-24T05:08:09.171Z,0.40
2018-01-24T05:10:35.765Z,0.50
2018-01-24T05:13:02.371Z,0.50
2018-01-24T05:15:29.040Z,0.70
2018-01-24T05:17:55.644Z,0.60
2018-01-24T05:20:38.068Z,0.60
2018-01-24T05:23:04.675Z,0.50
2018-01-24T05:25:31.272Z,0.70
2018-01-24T05:27:57.867Z,0.70
2018-01-24T05:30:24.473Z,0.70
2018-01-24T05:32:52.353Z,0.87
2018-01-24T05:35:18.967Z,0.70
2018-01-24T05:37:45.568Z,0.70
2018-01-24T05:40:12.161Z,0.73
2018-01-24T05:42:38.765Z,0.60
2018-01-24T05:45:05.350Z,0.83
2018-01-24T05:47:32.712Z,0.63
2018-01-24T05:49:59.307Z,0.70
2018-01-24T05:52:25.902Z,0.70
2018-01-24T05:54:52.503Z,0.70
2018-01-24T05:57:19.095Z,0.60
2018-01-24T05:59:45.719Z,0.70
2018-01-24T06:02:12.300Z,0.60
2018-01-24T06:04:38.903Z,0.60
2018-01-24T06:07:05.524Z,0.63
2018-01-24T06:09:32.124Z,0.60
2018-01-24T06:11:58.727Z,0.70
2018-01-24T06:14:25.315Z,0.70
2018-01-24T06:16:51.941Z,0.80
2018-01-24T06:19:18.540Z,0.60
2018-01-24T06:21:45.151Z,0.67
2018-01-24T06:24:11.769Z,0.70
2018-01-24T06:26:38.355Z,0.80
2018-01-24T06:29:04.945Z,0.93
2018-01-24T06:31:31.568Z,0.80
2018-01-24T06:33:58.195Z,0.87
2018-01-24T06:36:24.805Z,0.70
2018-01-24T06:38:51.399Z,0.70
2018-01-24T06:41:17.995Z,0.80
2018-01-24T06:43:44.595Z,0.80
2018-01-24T06:46:11.192Z,0.77
2018-01-24T06:48:37.838Z,0.80
2018-01-24T06:51:04.477Z,0.60
2018-01-24T06:53:31.068Z,0.70
2018-01-24T06:55:57.659Z,0.70
2018-01-24T06:58:24.255Z,0.70
2018-01-24T07:00:51.068Z,0.60
2018-01-24T07:03:17.661Z,0.63
2018-01-24T07:05:44.252Z,0.70
2018-01-24T07:08:10.854Z,0.70
2018-01-24T07:10:37.452Z,0.73
2018-01-24T07:13:09.966Z,1.00
2018-01-24T07:15:36.559Z,0.60
2018-01-24T07:18:03.464Z,0.80
2018-01-24T07:20:30.125Z,0.73
2018-01-24T07:22:56.667Z,0.80
2018-01-24T07:25:23.264Z,0.70
2018-01-24T07:27:49.861Z,0.70
2018-01-24T07:30:16.468Z,0.67
2018-01-24T07:32:43.067Z,0.90
2018-01-24T07:35:09.667Z,0.70
2018-01-24T07:37:36.290Z,0.70
2018-01-24T07:40:02.876Z,0.80
2018-01-24T07:42:29.489Z,0.70
2018-01-24T07:44:56.099Z,0.83
2018-01-24T07:47:23.043Z,0.60
2018-01-24T07:49:49.645Z,0.80
2018-01-24T07:52:16.235Z,0.70
2018-01-24T07:54:42.865Z,0.70
2018-01-24T07:57:09.464Z,0.60
2018-01-24T07:59:36.059Z,0.67
2018-01-24T08:02:02.656Z,0.60
2018-01-24T08:04:29.248Z,0.70
2018-01-24T08:06:55.855Z,0.70
2018-01-24T08:09:22.504Z,0.60
2018-01-24T08:11:49.420Z,0.70
2018-01-24T08:14:16.137Z,1.00
2018-01-24T08:16:42.715Z,0.80
2018-01-24T08:19:09.320Z,0.93
2018-01-24T08:21:35.916Z,0.80
2018-01-24T08:24:02.511Z,1.00
2018-01-24T08:26:29.113Z,0.83
2018-01-24T08:28:56.054Z,1.00
2018-01-24T08:31:22.644Z,1.00
2018-01-24T08:33:49.235Z,0.77
2018-01-24T08:36:15.837Z,1.00
2018-01-24T08:38:42.429Z,0.73
2018-01-24T08:41:09.112Z,0.80
2018-01-24T08:43:37.065Z,0.70
2018-01-24T08:46:02.734Z,0.70
2018-01-24T08:48:29.863Z,0.70
2018-01-24T08:50:56.513Z,0.70
2018-01-24T08:53:23.106Z,0.70
2018-01-24T08:55:49.695Z,0.83
2018-01-24T08:58:16.303Z,0.70
2018-01-24T09:00:42.914Z,0.90
2018-01-24T09:03:09.508Z,1.00
2018-01-24T09:05:36.110Z,0.90
2018-01-24T09:08:02.703Z,0.70
2018-01-24T09:10:29.308Z,0.70
2018-01-24T09:12:55.899Z,0.70
2018-01-24T09:15:22.491Z,0.70
2018-01-24T09:17:49.093Z,0.80
2018-01-24T09:20:15.680Z,0.77
2018-01-24T09:22:42.280Z,0.70
2018-01-24T09:25:08.915Z,0.60
2018-01-24T09:27:35.508Z,0.73
2018-01-24T09:30:02.099Z,0.60
2018-01-24T09:32:28.699Z,0.67
2018-01-24T09:34:55.291Z,0.80
2018-01-24T09:37:21.884Z,0.70
2018-01-24T09:39:48.488Z,1.20
2018-01-24T09:42:15.099Z,0.60
2018-01-24T09:44:41.747Z,0.80
2018-01-24T09:47:08.349Z,0.60
2018-01-24T09:49:34.960Z,0.60
2018-01-24T09:52:01.664Z,0.70
2018-01-24T09:54:28.245Z,0.67
2018-01-24T09:56:54.852Z,0.70
2018-01-24T09:59:21.435Z,0.70
2018-01-24T10:01:48.040Z,0.67
2018-01-24T10:04:14.632Z,0.60
2018-01-24T10:06:41.243Z,0.70
2018-01-24T10:09:07.836Z,0.70
2018-01-24T10:11:34.588Z,0.70
2018-01-24T10:14:01.201Z,0.80
2018-01-24T10:16:27.795Z,0.70
2018-01-24T10:18:54.402Z,0.70
2018-01-24T10:21:20.988Z,0.50
2018-01-24T10:23:47.588Z,0.60
2018-01-24T10:26:14.184Z,0.67
2018-01-24T10:28:40.781Z,0.70
2018-01-24T10:31:07.371Z,0.60
2018-01-24T10:33:33.979Z,0.60
2018-01-24T10:36:00.597Z,0.70
2018-01-24T10:38:27.178Z,0.50
2018-01-24T10:40:53.767Z,0.60
2018-01-24T10:43:20.355Z,0.70
2018-01-24T10:45:46.955Z,0.70
2018-01-24T10:48:13.559Z,0.50
2018-01-24T10:50:40.180Z,0.60
2018-01-24T10:53:06.782Z,0.70
2018-01-24T10:55:33.362Z,0.63
2018-01-24T10:57:59.960Z,0.50
2018-01-24T11:00:26.578Z,0.60
2018-01-24T11:02:53.155Z,0.60
2018-01-24T11:05:19.759Z,0.60
2018-01-24T11:07:46.357Z,0.70
2018-01-24T11:10:12.971Z,0.50
2018-01-24T11:12:39.563Z,0.60
2018-01-24T11:15:06.162Z,0.70
2018-01-24T11:17:32.755Z,0.43
2018-01-24T11:19:59.361Z,0.50
2018-01-24T11:22:25.959Z,0.50
2018-01-24T11:24:52.554Z,0.50
2018-01-24T11:27:19.184Z,0.50
2018-01-24T11:29:46.095Z,0.50
2018-01-24T11:32:12.695Z,0.60
2018-01-24T11:34:39.289Z,0.50
2018-01-24T11:37:05.883Z,0.50
2018-01-24T11:39:32.536Z,0.50
2018-01-24T11:41:59.080Z,0.50
2018-01-24T11:44:25.666Z,0.53
2018-01-24T11:46:52.260Z,0.60
2018-01-24T11:49:18.855Z,0.60
2018-01-24T11:51:45.450Z,0.60
2018-01-24T11:54:12.139Z,0.90
2018-01-24T11:56:38.739Z,0.50
2018-01-24T11:59:05.368Z,0.60
2018-01-24T12:01:31.960Z,0.57
2018-01-24T12:03:58.578Z,0.70
2018-01-24T12:06:25.172Z,0.53
2018-01-24T12:08:51.763Z,0.50
2018-01-24T12:11:18.355Z,0.70
2018-01-24T12:13:44.955Z,0.60
2018-01-24T12:16:11.567Z,0.60
2018-01-24T12:18:38.154Z,0.43
2018-01-24T12:21:04.756Z,0.53
2018-01-24T12:23:31.655Z,0.50
2018-01-24T12:25:58.246Z,0.60
2018-01-24T12:28:24.837Z,0.60
2018-01-24T12:30:51.450Z,0.50
2018-01-24T12:33:18.052Z,0.60
2018-01-24T12:35:44.660Z,0.50
2018-01-24T12:38:11.282Z,0.70
2018-01-24T12:40:37.965Z,0.70
2018-01-24T12:43:04.559Z,0.60
2018-01-24T12:45:31.157Z,0.70
2018-01-24T12:47:57.751Z,0.50
2018-01-24T12:50:24.340Z,0.60
2018-01-24T12:52:50.959Z,0.50
2018-01-24T12:55:17.551Z,0.50
2018-01-24T12:57:44.163Z,0.50
2018-01-24T13:00:10.754Z,0.60
2018-01-24T13:02:37.350Z,0.50
2018-01-24T13:05:03.955Z,0.60
2018-01-24T13:07:30.555Z,0.60
2018-01-24T13:09:57.157Z,0.63
2018-01-24T13:12:23.745Z,0.60
2018-01-24T13:14:50.351Z,0.50
2018-01-24T13:17:16.943Z,0.50
2018-01-24T13:19:43.535Z,0.57
2018-01-24T13:22:10.139Z,0.60
2018-01-24T13:24:36.741Z,0.50
2018-01-24T13:27:03.336Z,0.50
2018-01-24T13:29:29.928Z,0.60
2018-01-24T13:31:56.626Z,0.67
2018-01-24T13:34:23.208Z,0.40
2018-01-24T13:36:49.808Z,0.57
2018-01-24T13:39:16.405Z,0.50
2018-01-24T13:41:42.995Z,0.60
2018-01-24T13:44:09.592Z,0.50
2018-01-24T13:46:36.201Z,0.60
2018-01-24T13:49:02.792Z,0.60
2018-01-24T13:51:29.384Z,0.50
2018-01-24T13:53:55.983Z,0.50
2018-01-24T13:56:22.584Z,0.50
2018-01-24T13:58:49.179Z,0.50
2018-01-24T14:01:15.779Z,0.50
2018-01-24T14:03:42.375Z,0.50
2018-01-24T14:06:08.989Z,0.50
2018-01-24T14:08:35.580Z,0.57
2018-01-24T14:11:02.172Z,0.50
2018-01-24T14:13:28.767Z,0.50
2018-01-24T14:15:55.359Z,0.60
2018-01-24T14:18:21.961Z,0.60
2018-01-24T14:20:48.568Z,0.60
2018-01-24T14:23:15.190Z,0.67
2018-01-24T14:25:41.784Z,0.50
2018-01-24T14:28:08.375Z,0.60
2018-01-24T14:30:34.972Z,0.50
2018-01-24T14:33:01.564Z,0.50
2018-01-24T14:35:28.155Z,0.50
2018-01-24T14:37:54.747Z,0.60
2018-01-24T14:40:21.345Z,0.60
2018-01-24T14:42:47.941Z,0.57
2018-01-24T14:45:14.523Z,0.50
2018-01-24T14:47:41.122Z,0.60
2018-01-24T14:50:07.715Z,0.60
2018-01-24T14:52:34.315Z,0.50
2018-01-24T14:55:00.907Z,0.70
2018-01-24T14:57:27.559Z,0.60
2018-01-24T14:59:54.132Z,0.60
2018-01-24T15:02:20.749Z,0.50
2018-01-24T15:04:48.246Z,0.57
2018-01-24T15:07:14.832Z,0.70
2018-01-24T15:09:41.439Z,0.60
2018-01-24T15:12:08.042Z,0.60
2018-01-24T15:14:34.639Z,0.60
2018-01-24T15:17:01.239Z,0.60
2018-01-24T15:19:27.823Z,0.60
2018-01-24T15:21:54.419Z,0.63
2018-01-24T15:24:21.020Z,0.60
2018-01-24T15:26:47.611Z,0.60
2018-01-24T15:29:14.203Z,0.70
2018-01-24T15:31:40.803Z,0.80
2018-01-24T15:34:07.421Z,0.60
2018-01-24T15:36:34.024Z,0.60
2018-01-24T15:39:00.633Z,0.53
2018-01-24T15:41:27.229Z,0.90
2018-01-24T15:43:53.823Z,0.80
2018-01-24T15:46:20.420Z,0.70
2018-01-24T15:48:47.016Z,0.60
2018-01-24T15:51:13.609Z,0.60
2018-01-24T15:53:40.203Z,0.63
2018-01-24T15:56:06.819Z,0.60
2018-01-24T15:58:33.402Z,0.50
2018-01-24T16:01:00.029Z,0.50
2018-01-24T16:03:26.611Z,0.70
2018-01-24T16:05:53.225Z,0.60
2018-01-24T16:08:19.839Z,0.60
2018-01-24T16:10:46.428Z,0.60
2018-01-24T16:13:13.031Z,0.63
2018-01-24T16:15:39.619Z,0.60
2018-01-24T16:18:06.219Z,0.73
2018-01-24T16:20:32.823Z,0.67
2018-01-24T16:22:59.437Z,0.70
2018-01-24T16:25:26.031Z,1.10
2018-01-24T16:27:52.627Z,0.70
2018-01-24T16:30:19.230Z,0.70
2018-01-24T16:32:45.825Z,0.70
2018-01-24T16:35:12.417Z,0.80
2018-01-24T16:37:39.015Z,0.93
2018-01-24T16:40:05.616Z,0.60
2018-01-24T16:42:32.575Z,0.80
2018-01-24T16:44:59.260Z,0.70
2018-01-24T16:47:25.855Z,0.70
2018-01-24T16:49:52.451Z,0.60
2018-01-24T16:52:19.043Z,0.70
2018-01-24T16:54:45.647Z,1.20
2018-01-24T16:57:12.247Z,1.37
2018-01-24T16:59:39.091Z,2.40
2018-01-24T17:02:05.743Z,1.73
2018-01-24T17:04:32.336Z,2.30
2018-01-24T17:06:58.952Z,0.73
2018-01-24T17:09:25.620Z,3.60
2018-01-24T17:11:52.226Z,2.10
2018-01-24T17:14:18.819Z,2.00
2018-01-24T17:16:45.428Z,1.30
2018-01-24T17:19:12.121Z,2.53
2018-01-24T17:21:38.672Z,1.37
2018-01-24T17:24:05.263Z,2.40
2018-01-24T17:26:31.856Z,3.40
2018-01-24T17:28:58.764Z,1.20
2018-01-24T17:31:25.355Z,1.30
2018-01-24T17:33:51.946Z,1.60
2018-01-24T17:36:18.544Z,0.80
2018-01-24T17:38:45.127Z,1.80
2018-01-24T17:41:11.727Z,2.03
2018-01-24T17:43:38.325Z,1.70
2018-01-24T17:46:04.920Z,1.13
2018-01-24T17:48:31.512Z,1.00
2018-01-24T17:50:58.115Z,1.00
2018-01-24T17:53:24.705Z,1.50
2018-01-24T17:55:51.316Z,1.20
2018-01-24T17:58:17.912Z,1.40
2018-01-24T18:00:44.499Z,2.00
2018-01-24T18:03:11.154Z,1.30
2018-01-24T18:05:38.328Z,1.20
2018-01-24T18:08:04.931Z,1.10
2018-01-24T18:10:31.551Z,0.93
2018-01-24T18:12:58.168Z,1.00
2018-01-24T18:15:24.760Z,1.20
2018-01-24T18:17:51.368Z,1.00
2018-01-24T18:20:17.952Z,0.97
2018-01-24T18:22:47.024Z,1.00
2018-01-24T18:25:13.622Z,1.20
2018-01-24T18:27:40.229Z,0.90
2018-01-24T18:30:06.842Z,1.70
2018-01-24T18:32:34.313Z,0.90
2018-01-24T18:35:00.952Z,1.10
2018-01-24T18:37:28.507Z,1.13
2018-01-24T18:39:55.100Z,1.17
2018-01-24T18:42:23.111Z,1.00
2018-01-24T18:44:49.713Z,1.23
2018-01-24T18:47:17.020Z,1.30
2018-01-24T18:49:43.626Z,1.10
2018-01-24T18:52:10.224Z,0.90
2018-01-24T18:54:36.925Z,1.10
2018-01-24T18:57:04.420Z,1.20
2018-01-24T18:59:33.100Z,1.20
2018-01-24T19:01:59.700Z,0.90
2018-01-24T19:04:26.292Z,1.20
2018-01-24T19:06:52.887Z,1.17
2018-01-24T19:09:19.479Z,0.83
2018-01-24T19:14:20.108Z,1.10
2018-01-24T19:16:46.711Z,1.27
2018-01-24T19:19:13.303Z,1.00
2018-01-24T19:21:39.897Z,0.97
2018-01-24T19:24:06.491Z,1.10
2018-01-24T19:26:33.090Z,1.00
2018-01-24T19:28:59.687Z,1.13
2018-01-24T19:31:26.290Z,1.00
2018-01-24T19:33:52.894Z,1.13
2018-01-24T19:36:19.511Z,0.90
2018-01-24T19:38:46.112Z,1.20
2018-01-24T19:41:12.727Z,1.00
2018-01-24T19:43:39.373Z,1.20
2018-01-24T19:46:05.963Z,1.00
2018-01-24T19:48:32.564Z,1.10
2018-01-24T19:50:59.156Z,1.30
2018-01-24T19:53:25.757Z,1.10
2018-01-24T19:55:52.352Z,1.43
2018-01-24T19:58:18.960Z,1.20
2018-01-24T20:00:45.579Z,1.17
2018-01-24T20:03:12.176Z,1.10
2018-01-24T20:05:38.805Z,1.10
2018-01-24T20:08:05.404Z,1.20
2018-01-24T20:10:32.008Z,1.20
2018-01-24T20:12:58.603Z,1.20
2018-01-24T20:15:25.211Z,1.10
2018-01-24T20:17:51.807Z,1.23
2018-01-24T20:20:18.399Z,1.30
2018-01-24T20:22:45.933Z,1.20
2018-01-24T20:25:12.520Z,1.10
2018-01-24T20:27:39.117Z,1.07
2018-01-24T20:30:05.708Z,1.30
2018-01-24T20:32:32.312Z,1.10
2018-01-24T20:34:58.921Z,1.30
2018-01-24T20:37:25.503Z,1.10
2018-01-24T20:39:52.284Z,1.03
2018-01-24T20:42:19.856Z,1.30
2018-01-24T20:44:47.946Z,1.37
2018-01-24T20:47:14.535Z,1.50
2018-01-24T20:49:42.156Z,1.30
2018-01-24T20:52:08.749Z,1.20
2018-01-24T20:54:35.339Z,1.40
2018-01-24T20:57:01.953Z,1.50
2018-01-24T20:59:28.554Z,2.30
2018-01-24T21:01:55.165Z,2.20
2018-01-24T21:04:21.756Z,1.77
2018-01-24T21:06:48.351Z,1.40
2018-01-24T21:09:14.947Z,1.50
2018-01-24T21:11:41.548Z,1.43
2018-01-24T21:14:08.166Z,1.20
2018-01-24T21:16:34.833Z,1.40
2018-01-24T21:19:01.411Z,1.47
2018-01-24T21:21:27.999Z,1.40
2018-01-24T21:23:54.607Z,1.40
2018-01-24T21:26:21.212Z,1.47
2018-01-24T21:29:03.003Z,1.47
2018-01-24T21:31:35.383Z,1.47
2018-01-24T21:34:08.172Z,1.23
2018-01-24T21:36:34.785Z,1.50
2018-01-24T21:39:01.377Z,1.40
2018-01-24T21:41:27.975Z,1.50
2018-01-24T21:43:54.569Z,1.33
2018-01-24T21:46:21.272Z,1.60
2018-01-24T21:48:47.847Z,1.40
2018-01-24T21:51:14.450Z,1.50
2018-01-24T21:53:41.045Z,1.47
2018-01-24T21:56:07.645Z,1.40
2018-01-24T21:58:34.250Z,1.50
2018-01-24T22:01:00.841Z,1.50
2018-01-24T22:03:27.436Z,1.60
2018-01-24T22:05:54.032Z,1.50
2018-01-24T22:08:20.636Z,1.40
2018-01-24T22:10:47.227Z,1.40
2018-01-24T22:13:13.827Z,1.40
2018-01-24T22:15:40.424Z,1.30
2018-01-24T22:18:07.023Z,1.30
2018-01-24T22:20:33.636Z,1.43
2018-01-24T22:23:00.239Z,1.43
2018-01-24T22:25:26.839Z,1.47
2018-01-24T22:27:53.455Z,1.30
2018-01-24T22:30:20.158Z,1.33
2018-01-24T22:32:46.739Z,1.50
2018-01-24T22:35:13.330Z,1.20
2018-01-24T22:37:39.935Z,1.30
2018-01-24T22:40:06.536Z,1.40
2018-01-24T22:42:33.131Z,1.27
2018-01-24T22:44:59.736Z,1.40
2018-01-24T22:47:26.323Z,1.20
2018-01-24T22:49:52.921Z,1.40
2018-01-24T22:52:19.511Z,1.87
2018-01-24T22:54:46.103Z,1.23
2018-01-24T22:57:12.745Z,1.27
2018-01-24T22:59:39.311Z,1.33
2018-01-24T23:02:05.916Z,1.50
2018-01-24T23:04:32.510Z,1.20
2018-01-24T23:06:59.107Z,1.40
2018-01-24T23:09:25.703Z,1.20
2018-01-24T23:11:52.293Z,1.30
2018-01-24T23:14:18.895Z,1.30
2018-01-24T23:16:45.483Z,1.40
2018-01-24T23:19:12.087Z,1.50
2018-01-24T23:21:38.687Z,1.30
2018-01-24T23:24:05.285Z,1.30
2018-01-24T23:26:31.882Z,1.50
2018-01-24T23:28:58.478Z,1.37
2018-01-24T23:31:25.075Z,1.40
2018-01-24T23:33:51.669Z,1.23
2018-01-24T23:36:18.255Z,1.50
2018-01-24T23:38:44.847Z,1.50
2018-01-24T23:41:11.456Z,1.43
2018-01-24T23:43:38.039Z,1.40
2018-01-24T23:46:04.635Z,1.60
2018-01-24T23:48:31.244Z,1.73
2018-01-24T23:50:57.831Z,1.60
2018-01-24T23:53:24.420Z,1.27
2018-01-24T23:55:51.024Z,1.30
2018-01-24T23:58:17.625Z,1.40
